Time;durP1;ratioP1;P1;durP2;ratioP2;P2;SDS_P1;SDS_P2;PMS_P1;PMS_P2;Temp;Humidity;BMP_temperature;BMP_pressure;BME280_temperature;BME280_humidity;BME280_pressure;Samples;Min_cycle;Max_cycle;Signal;HPM_P1;HPM_P2
2021/11/20 00:00:52;;;;;;;44.10;14.02;;;;;;;2.20;100.00;96787.78;5028035;28;20053;-76
2021/11/20 00:03:17;;;;;;;48.58;15.00;;;;;;;2.19;100.00;96785.38;5029571;28;20116;-76
2021/11/20 00:05:45;;;;;;;37.17;14.55;;;;;;;2.14;100.00;96778.13;5030744;28;20533;-76
2021/11/20 00:08:11;;;;;;;46.85;15.93;;;;;;;2.19;100.00;96788.75;5029325;28;20767;-77
2021/11/20 00:10:42;;;;;;;52.38;13.68;;;;;;;2.13;100.00;96786.13;5030653;28;20040;-76
2021/11/20 00:13:09;;;;;;;59.20;15.00;;;;;;;2.18;100.00;96794.94;5029940;28;20557;-75
2021/11/20 00:15:40;;;;;;;55.55;14.85;;;;;;;2.01;100.00;96793.56;5031245;28;20041;-75
2021/11/20 00:18:06;;;;;;;43.30;14.60;;;;;;;1.97;100.00;96792.31;5031731;28;20526;-76
2021/11/20 00:20:35;;;;;;;52.03;14.45;;;;;;;2.03;100.00;96786.41;5020357;28;20045;-76
2021/11/20 00:23:01;;;;;;;47.22;14.43;;;;;;;1.98;100.00;96783.53;5029392;28;20745;-76
2021/11/20 00:25:39;;;;;;;41.30;13.60;;;;;;;2.01;100.00;96783.19;5031356;28;20045;-76
2021/11/20 00:28:05;;;;;;;43.25;13.23;;;;;;;1.95;100.00;96781.31;5030658;28;20455;-76
2021/11/20 00:33:20;;;;;;;46.53;13.63;;;;;;;2.13;100.00;96781.72;5030416;28;20053;-76
2021/11/20 00:35:46;;;;;;;57.53;14.18;;;;;;;2.19;100.00;96770.59;5034271;28;20064;-76
2021/11/20 00:38:13;;;;;;;52.03;13.13;;;;;;;2.15;100.00;96773.75;5034036;28;20046;-76
2021/11/20 00:40:52;;;;;;;56.42;13.18;;;;;;;2.15;100.00;96776.34;5035288;28;20045;-77
2021/11/20 00:43:19;;;;;;;41.42;12.45;;;;;;;2.09;100.00;96772.69;5030124;28;20064;-76
2021/11/20 00:45:45;;;;;;;67.93;14.05;;;;;;;2.03;100.00;96776.03;5035030;28;20046;-76
2021/11/20 00:48:12;;;;;;;37.95;13.60;;;;;;;1.98;100.00;96783.53;5033650;28;20125;-76
2021/11/20 00:50:40;;;;;;;46.33;13.68;;;;;;;1.96;100.00;96775.16;5031546;28;20045;-77
2021/11/20 00:53:06;;;;;;;42.55;13.93;;;;;;;2.02;100.00;96784.78;5033068;28;20057;-76
2021/11/20 00:55:31;;;;;;;40.53;13.70;;;;;;;1.97;100.00;96787.13;5035080;28;20045;-76
2021/11/20 00:57:59;;;;;;;35.20;13.30;;;;;;;1.83;100.00;96779.19;5034452;28;20099;-76
2021/11/20 01:00:35;;;;;;;37.35;13.52;;;;;;;2.01;100.00;96777.97;5035112;28;20037;-76
2021/11/20 01:03:01;;;;;;;44.63;12.85;;;;;;;1.89;100.00;96772.47;5028358;28;20044;-77
2021/11/20 01:05:27;;;;;;;48.65;13.60;;;;;;;1.95;100.00;96768.34;5033516;28;20045;-76
2021/11/20 01:07:53;;;;;;;31.13;12.95;;;;;;;1.92;100.00;96773.91;5034335;28;20048;-76
2021/11/20 01:10:23;;;;;;;39.17;13.00;;;;;;;1.92;100.00;96779.09;5026853;28;20519;-76
2021/11/20 01:12:49;;;;;;;40.63;12.98;;;;;;;1.89;100.00;96781.06;5033536;28;20037;-77
2021/11/20 01:15:19;;;;;;;39.20;12.27;;;;;;;1.90;100.00;96777.47;5033340;28;20725;-77
2021/11/20 01:17:45;;;;;;;53.80;13.35;;;;;;;1.88;100.00;96769.06;5032935;28;20047;-76
2021/11/20 01:20:11;;;;;;;42.15;13.25;;;;;;;1.86;100.00;96771.03;5033539;28;20045;-75
2021/11/20 01:22:37;;;;;;;37.78;12.13;;;;;;;1.85;100.00;96764.25;5031709;28;20042;-76
2021/11/20 01:25:04;;;;;;;41.00;12.95;;;;;;;1.86;100.00;96755.47;5032146;28;20124;-76
2021/11/20 01:27:30;;;;;;;48.95;13.23;;;;;;;1.88;100.00;96758.69;5032268;28;20502;-76
2021/11/20 01:29:56;;;;;;;38.72;13.07;;;;;;;1.89;100.00;96765.47;5026044;28;20041;-77
2021/11/20 01:32:21;;;;;;;37.30;13.73;;;;;;;1.83;100.00;96763.63;5025703;28;20353;-76
2021/11/20 01:34:47;;;;;;;50.78;13.30;;;;;;;1.85;100.00;96761.66;5031929;28;20049;-76
2021/11/20 01:37:15;;;;;;;31.90;11.48;;;;;;;1.81;100.00;96763.00;5031712;28;20041;-76
2021/11/20 01:39:42;;;;;;;29.90;12.23;;;;;;;1.80;100.00;96760.59;5032790;28;20562;-77
2021/11/20 01:42:13;;;;;;;49.03;12.40;;;;;;;1.82;100.00;96754.22;5031857;28;20047;-76
2021/11/20 01:44:41;;;;;;;37.65;12.10;;;;;;;1.82;100.00;96753.41;5032324;28;20094;-76
2021/11/20 01:47:31;;;;;;;44.63;11.85;;;;;;;1.85;100.00;96748.69;5031412;28;20041;-76
2021/11/20 01:50:07;;;;;;;44.97;11.65;;;;;;;1.80;100.00;96745.81;5032511;28;20045;-76
2021/11/20 01:52:45;;;;;;;45.67;11.10;;;;;;;1.80;100.00;96740.63;5022019;28;20041;-76
2021/11/20 01:55:20;;;;;;;35.10;11.30;;;;;;;1.78;100.00;96740.03;5022170;28;20049;-76
2021/11/20 01:57:51;;;;;;;;;;;;;;;1.64;100.00;96733.03;5030282;28;20056;-77
2021/11/20 02:00:35;;;;;;;34.67;10.40;;;;;;;1.71;100.00;96731.31;5031905;28;19925;-76
2021/11/20 02:03:13;;;;;;;35.55;10.80;;;;;;;1.71;100.00;96726.13;5030950;28;20053;-76
2021/11/20 02:05:44;;;;;;;37.05;11.40;;;;;;;1.76;100.00;96718.63;5031123;28;20050;-76
2021/11/20 02:08:27;;;;;;;47.85;10.82;;;;;;;1.75;100.00;96724.78;5017130;28;20065;-76
2021/11/20 02:10:57;;;;;;;28.75;11.18;;;;;;;1.80;100.00;96719.06;5022128;28;20594;-75
2021/11/20 02:13:27;;;;;;;35.35;11.20;;;;;;;1.73;100.00;96713.78;5031179;28;20045;-75
2021/11/20 02:15:59;;;;;;;30.17;10.57;;;;;;;1.73;100.00;96713.78;5027661;28;20052;-76
2021/11/20 02:18:29;;;;;;;32.05;11.20;;;;;;;1.64;100.00;96709.69;5031657;28;20053;-76
2021/11/20 02:21:04;;;;;;;33.47;10.00;;;;;;;1.64;100.00;96710.50;5025862;28;20042;-76
2021/11/20 02:23:29;;;;;;;32.28;10.55;;;;;;;1.68;100.00;96705.75;5022985;28;20053;-76
2021/11/20 02:25:55;;;;;;;32.08;9.82;;;;;;;1.70;100.00;96694.19;5031403;28;20048;-75
2021/11/20 02:28:20;;;;;;;28.95;9.95;;;;;;;1.68;100.00;96690.19;5030440;28;20045;-76
2021/11/20 02:30:49;;;;;;;26.42;9.57;;;;;;;1.70;100.00;96693.41;5029984;28;20065;-77
2021/11/20 02:33:28;;;;;;;25.05;9.77;;;;;;;1.77;100.00;96683.06;5030209;28;20096;-76
2021/11/20 02:36:04;;;;;;;25.00;9.60;;;;;;;1.77;100.00;96677.88;5027222;28;20064;-76
2021/11/20 02:38:35;;;;;;;26.50;9.23;;;;;;;1.72;100.00;96675.84;5031124;28;20056;-75
2021/11/20 02:41:02;;;;;;;23.98;8.50;;;;;;;1.74;100.00;96684.28;5016623;28;20037;-76
2021/11/20 02:43:32;;;;;;;26.05;8.95;;;;;;;1.79;100.00;96679.31;5021636;28;20037;-76
2021/11/20 02:45:57;;;;;;;20.15;7.57;;;;;;;1.76;100.00;96671.91;5029582;28;20099;-76
2021/11/20 02:48:24;;;;;;;22.42;8.05;;;;;;;1.81;100.00;96672.16;5027264;28;20042;-75
2021/11/20 02:50:54;;;;;;;21.92;8.35;;;;;;;1.80;100.00;96667.94;5030969;28;20041;-77
2021/11/20 02:53:27;;;;;;;20.10;7.70;;;;;;;1.78;100.00;96669.94;5031059;28;20060;-76
2021/11/20 02:55:52;;;;;;;21.58;8.18;;;;;;;1.83;100.00;96661.59;5029503;28;20494;-77
2021/11/20 02:58:22;;;;;;;20.80;7.95;;;;;;;1.83;100.00;96657.19;5031933;28;20038;-75
2021/11/20 03:00:57;;;;;;;20.48;7.57;;;;;;;1.84;100.00;96658.81;5030956;28;20041;-76
2021/11/20 03:03:23;;;;;;;25.95;9.20;;;;;;;1.78;100.00;96654.38;5031726;28;20045;-77
2021/11/20 03:05:49;;;;;;;21.85;8.13;;;;;;;1.76;100.00;96651.13;5029833;28;20042;-76
2021/11/20 03:08:14;;;;;;;20.35;7.78;;;;;;;1.82;100.00;96645.19;5025478;28;20042;-76
2021/11/20 03:10:41;;;;;;;25.92;8.70;;;;;;;1.82;100.00;96632.22;5029486;28;20075;-77
2021/11/20 03:13:06;;;;;;;22.77;8.68;;;;;;;1.88;100.00;96644.47;5030539;28;20124;-77
2021/11/20 03:15:32;;;;;;;18.95;7.43;;;;;;;1.86;100.00;96636.06;5031446;28;20100;-76
2021/11/20 03:17:57;;;;;;;20.33;7.80;;;;;;;1.93;100.00;96624.94;5032304;28;20045;-75
2021/11/20 03:20:24;;;;;;;17.13;7.53;;;;;;;2.05;100.00;96633.81;5030143;28;20048;-77
2021/11/20 03:23:05;;;;;;;21.52;7.90;;;;;;;2.07;100.00;96626.66;5030384;28;20042;-77
2021/11/20 03:25:31;;;;;;;20.88;7.72;;;;;;;2.06;100.00;96630.25;5045479;28;20041;-77
2021/11/20 03:27:57;;;;;;;21.48;8.45;;;;;;;1.88;100.00;96628.91;5030298;28;20045;-77
2021/11/20 03:30:23;;;;;;;20.83;8.02;;;;;;;1.73;100.00;96635.94;5031472;28;20518;-76
2021/11/20 03:32:48;;;;;;;23.95;8.38;;;;;;;1.60;100.00;96630.63;5031335;28;20069;-77
2021/11/20 03:35:14;;;;;;;21.88;7.70;;;;;;;1.79;100.00;96634.41;5031771;28;20099;-77
2021/11/20 03:37:40;;;;;;;21.00;8.10;;;;;;;1.99;100.00;96631.97;5025460;28;20082;-77
2021/11/20 03:40:09;;;;;;;18.73;7.97;;;;;;;1.99;100.00;96621.59;5030053;28;20718;-76
2021/11/20 03:42:35;;;;;;;19.38;7.43;;;;;;;1.97;100.00;96615.78;5030395;28;20611;-76
2021/11/20 03:45:00;;;;;;;20.55;7.72;;;;;;;2.01;100.00;96619.59;5030259;28;20041;-76
2021/11/20 03:47:26;;;;;;;19.02;7.55;;;;;;;1.94;100.00;96616.16;5031333;28;20045;-76
2021/11/20 03:49:52;;;;;;;17.63;7.30;;;;;;;2.08;100.00;96623.06;5030856;28;20056;-77
2021/11/20 03:52:18;;;;;;;13.77;6.32;;;;;;;2.16;100.00;96615.13;5022438;28;20072;-76
2021/11/20 03:54:45;;;;;;;17.38;7.18;;;;;;;2.21;100.00;96620.56;5029404;28;20072;-77
2021/11/20 03:57:11;;;;;;;18.00;6.68;;;;;;;2.16;100.00;96604.75;5029296;28;20103;-75
2021/11/20 03:59:36;;;;;;;18.35;7.03;;;;;;;2.11;100.00;96604.50;5023939;28;20041;-76
2021/11/20 04:02:03;;;;;;;20.65;8.05;;;;;;;1.92;100.00;96612.94;5030844;28;20054;-77
2021/11/20 04:04:30;;;;;;;18.45;7.32;;;;;;;1.83;100.00;96610.47;5029787;28;20088;-77
2021/11/20 04:06:55;;;;;;;18.02;7.75;;;;;;;1.77;100.00;96606.03;5025658;28;20111;-77
2021/11/20 04:09:22;;;;;;;24.45;8.07;;;;;;;1.97;100.00;96600.19;5052108;28;20045;-75
2021/11/20 04:11:49;;;;;;;19.67;7.97;;;;;;;2.12;100.00;96603.50;5033599;28;20701;-75
2021/11/20 04:14:17;;;;;;;21.95;7.18;;;;;;;2.23;100.00;96605.59;5036144;28;20399;-76
2021/11/20 04:16:44;;;;;;;18.92;7.70;;;;;;;2.26;100.00;96599.22;5035129;28;20064;-76
2021/11/20 04:19:09;;;;;;;15.07;6.82;;;;;;;2.02;100.00;96593.44;5035912;28;20049;-75
2021/11/20 04:21:36;;;;;;;15.82;7.25;;;;;;;1.83;100.00;96604.50;5037528;28;20124;-76
2021/11/20 04:24:03;;;;;;;17.50;6.35;;;;;;;2.02;100.00;96597.84;5035319;28;20765;-76
2021/11/20 04:26:29;;;;;;;17.08;7.20;;;;;;;2.17;100.00;96595.97;5025163;28;20116;-76
2021/11/20 04:28:54;;;;;;;17.77;6.63;;;;;;;2.19;100.00;96591.38;5036628;28;20479;-77
2021/11/20 04:31:21;;;;;;;16.00;7.07;;;;;;;2.27;100.00;96594.81;5037824;28;20103;-77
2021/11/20 04:33:48;;;;;;;16.48;6.95;;;;;;;2.24;100.00;96596.00;5033542;28;20097;-75
2021/11/20 04:36:14;;;;;;;15.82;7.03;;;;;;;2.34;100.00;96591.28;5031249;28;20064;-76
2021/11/20 04:38:40;;;;;;;18.55;7.05;;;;;;;2.32;100.00;96587.28;5036100;28;20050;-76
2021/11/20 04:41:06;;;;;;;17.10;7.25;;;;;;;2.28;100.00;96591.25;5034814;28;20759;-76
2021/11/20 04:43:33;;;;;;;18.90;7.50;;;;;;;2.33;100.00;96583.66;5035197;28;20590;-76
2021/11/20 04:45:58;;;;;;;13.13;6.05;;;;;;;2.35;100.00;96587.69;5035618;28;20041;-77
2021/11/20 04:48:24;;;;;;;19.33;7.00;;;;;;;2.07;100.00;96585.13;5035584;28;20045;-76
2021/11/20 04:50:53;;;;;;;14.95;6.68;;;;;;;2.06;100.00;96583.50;5035834;28;20045;-77
2021/11/20 04:53:19;;;;;;;19.70;7.85;;;;;;;1.88;100.00;96582.19;5025696;28;20049;-76
2021/11/20 04:55:44;;;;;;;16.63;7.18;;;;;;;2.02;100.00;96587.47;5034685;28;20064;-76
2021/11/20 04:58:10;;;;;;;21.38;7.53;;;;;;;2.13;100.00;96579.16;5036034;28;20111;-77
2021/11/20 05:00:40;;;;;;;18.70;6.57;;;;;;;2.36;100.00;96578.13;5034765;28;20041;-76
2021/11/20 05:03:07;;;;;;;18.67;7.57;;;;;;;2.39;100.00;96593.31;5035810;28;20076;-77
2021/11/20 05:05:35;;;;;;;16.35;6.80;;;;;;;2.39;100.00;96588.13;5035343;28;20103;-76
2021/11/20 05:08:02;;;;;;;14.75;7.18;;;;;;;2.45;100.00;96587.34;5036442;28;20065;-76
2021/11/20 05:10:30;;;;;;;13.32;6.30;;;;;;;2.43;100.00;96568.56;5034613;28;20469;-75
2021/11/20 05:12:55;;;;;;;14.10;6.90;;;;;;;2.41;100.00;96575.72;5023258;28;20499;-75
2021/11/20 05:15:22;;;;;;;11.32;5.80;;;;;;;2.40;100.00;96568.94;5023974;28;20171;-76
2021/11/20 05:17:47;;;;;;;15.15;6.90;;;;;;;2.28;100.00;96565.25;5034763;28;20368;-75
2021/11/20 05:20:14;;;;;;;14.98;6.28;;;;;;;2.15;100.00;96566.78;5031185;28;20041;-76
2021/11/20 05:22:40;;;;;;;14.52;7.32;;;;;;;1.94;100.00;96569.41;5031853;28;20045;-76
2021/11/20 05:25:07;;;;;;;18.13;7.82;;;;;;;1.96;100.00;96568.25;5033567;28;20757;-76
2021/11/20 05:27:32;;;;;;;19.40;7.45;;;;;;;2.23;100.00;96558.84;5031735;28;20038;-76
2021/11/20 05:32:24;;;;;;;12.63;6.55;;;;;;;2.23;100.00;96558.84;5032614;28;20045;-75
2021/11/20 05:34:51;;;;;;;18.75;7.68;;;;;;;2.31;100.00;96562.28;5013997;28;20052;-76
2021/11/20 05:37:17;;;;;;;14.60;6.90;;;;;;;2.41;100.00;96560.13;5032585;28;20045;-76
2021/11/20 05:39:42;;;;;;;15.57;6.72;;;;;;;2.45;100.00;96561.38;5030813;28;20043;-76
2021/11/20 05:42:08;;;;;;;13.45;6.47;;;;;;;2.48;100.00;96565.38;5031401;28;20064;-76
2021/11/20 05:44:34;;;;;;;16.17;6.65;;;;;;;2.46;100.00;96565.56;5032374;28;20049;-76
2021/11/20 05:47:00;;;;;;;13.43;6.07;;;;;;;2.37;100.00;96566.72;5031982;28;22169;-77
2021/11/20 05:49:27;;;;;;;16.25;6.47;;;;;;;2.25;100.00;96567.22;5033844;28;20049;-76
2021/11/20 05:51:54;;;;;;;15.73;6.55;;;;;;;2.21;100.00;96555.66;5033327;28;20495;-75
2021/11/20 05:54:20;;;;;;;13.02;6.93;;;;;;;2.17;100.00;96553.59;5029075;28;20108;-76
2021/11/20 05:56:45;;;;;;;13.50;6.30;;;;;;;2.30;100.00;96552.88;5031625;28;20044;-76
2021/11/20 05:59:11;;;;;;;16.45;6.57;;;;;;;2.25;100.00;96554.25;5043021;28;20041;-75
2021/11/20 06:01:37;;;;;;;16.85;7.03;;;;;;;2.16;100.00;96552.81;5033145;28;20044;-76
2021/11/20 06:04:03;;;;;;;14.65;6.75;;;;;;;2.22;100.00;96552.03;5033375;28;20042;-76
2021/11/20 06:06:28;;;;;;;14.23;6.88;;;;;;;2.17;100.00;96549.22;5031636;28;20057;-76
2021/11/20 06:08:54;;;;;;;15.07;6.63;;;;;;;2.07;100.00;96553.94;5033594;28;20049;-77
2021/11/20 06:11:19;;;;;;;13.18;6.00;;;;;;;2.06;100.00;96542.75;5032664;28;20081;-76
2021/11/20 06:13:46;;;;;;;13.95;6.22;;;;;;;2.29;100.00;96546.09;5023749;28;20041;-76
2021/11/20 06:16:12;;;;;;;13.88;6.13;;;;;;;2.24;100.00;96555.25;5032806;28;20515;-76
2021/11/20 06:18:38;;;;;;;12.35;6.07;;;;;;;2.31;100.00;96550.09;5031775;28;20038;-77
2021/11/20 06:21:06;;;;;;;12.52;5.47;;;;;;;2.24;100.00;96547.47;5033664;28;20514;-76
2021/11/20 06:23:34;;;;;;;13.05;6.38;;;;;;;2.11;100.00;96544.75;5027071;28;20419;-76
2021/11/20 06:26:00;;;;;;;14.45;6.15;;;;;;;2.07;100.00;96544.34;5032864;28;20446;-76
2021/11/20 06:28:27;;;;;;;12.70;5.93;;;;;;;2.06;100.00;96541.97;5031794;28;20462;-77
2021/11/20 06:30:53;;;;;;;12.63;6.05;;;;;;;2.08;100.00;96551.16;5031806;28;20038;-76
2021/11/20 06:33:19;;;;;;;11.95;6.00;;;;;;;2.16;100.00;96547.59;5031672;28;20040;-77
2021/11/20 06:35:45;;;;;;;13.75;6.45;;;;;;;2.19;100.00;96552.41;5032400;28;20049;-76
2021/11/20 06:38:10;;;;;;;14.15;6.45;;;;;;;2.14;100.00;96557.41;5046942;28;20042;-76
2021/11/20 06:40:40;;;;;;;12.68;5.97;;;;;;;2.16;100.00;96558.00;5033452;28;20107;-76
2021/11/20 06:43:07;;;;;;;14.95;6.40;;;;;;;2.24;100.00;96555.25;5037767;28;20049;-75
2021/11/20 06:45:36;;;;;;;12.45;5.88;;;;;;;2.20;100.00;96559.22;5043465;28;20041;-76
2021/11/20 06:48:02;;;;;;;14.02;6.20;;;;;;;2.15;100.00;96561.56;5032885;28;20045;-76
2021/11/20 06:50:29;;;;;;;13.13;6.13;;;;;;;2.19;100.00;96557.63;5033480;28;20037;-77
2021/11/20 06:52:55;;;;;;;15.30;5.95;;;;;;;2.22;100.00;96552.03;5024522;28;20097;-76
2021/11/20 06:55:22;;;;;;;13.02;6.03;;;;;;;2.32;100.00;96545.72;5042562;28;20551;-75
2021/11/20 06:57:52;;;;;;;12.35;6.10;;;;;;;2.37;100.00;96554.53;5030122;28;20570;-76
2021/11/20 07:00:28;;;;;;;14.82;6.05;;;;;;;2.53;100.00;96543.03;5033287;28;20043;-76
2021/11/20 07:03:09;;;;;;;12.45;5.65;;;;;;;2.51;100.00;96545.00;5032298;28;20037;-76
2021/11/20 07:05:40;;;;;;;13.52;6.25;;;;;;;2.63;100.00;96541.84;5037711;28;20048;-76
2021/11/20 07:08:07;;;;;;;15.20;6.63;;;;;;;2.64;100.00;96539.06;5050571;28;20067;-77
2021/11/20 07:10:34;;;;;;;11.45;5.22;;;;;;;2.67;100.00;96545.69;5031794;28;20525;-76
2021/11/20 07:13:00;;;;;;;12.45;5.93;;;;;;;2.66;100.00;96538.88;5034405;28;20037;-76
2021/11/20 07:15:27;;;;;;;12.25;5.53;;;;;;;2.61;100.00;96549.84;5032301;28;20048;-76
2021/11/20 07:17:53;;;;;;;12.75;6.13;;;;;;;2.54;100.00;96549.84;5017817;28;20049;-75
2021/11/20 07:20:22;;;;;;;12.63;5.53;;;;;;;2.55;100.00;96548.03;5031750;28;20032;-76
2021/11/20 07:22:48;;;;;;;11.85;5.38;;;;;;;2.62;100.00;96553.28;5023552;28;20041;-77
2021/11/20 07:25:15;;;;;;;11.70;5.25;;;;;;;2.69;100.00;96546.31;5024418;28;20099;-77
2021/11/20 07:27:42;;;;;;;11.63;5.57;;;;;;;2.55;100.00;96554.00;5031202;28;20116;-76
2021/11/20 07:30:09;;;;;;;11.25;5.72;;;;;;;2.68;100.00;96552.50;5031202;28;20042;-76
2021/11/20 07:32:35;;;;;;;10.68;5.50;;;;;;;2.80;100.00;96548.31;5034496;28;20065;-77
2021/11/20 07:35:02;;;;;;;10.32;5.05;;;;;;;2.81;100.00;96544.72;5032442;28;20049;-76
2021/11/20 07:37:27;;;;;;;11.38;5.53;;;;;;;2.74;100.00;96549.09;5032511;28;20041;-76
2021/11/20 07:39:54;;;;;;;11.27;5.60;;;;;;;2.80;100.00;96556.13;5032641;28;20037;-76
2021/11/20 07:42:20;;;;;;;12.43;5.22;;;;;;;2.87;100.00;96559.53;5028807;28;20045;-76
2021/11/20 07:44:46;;;;;;;12.60;5.78;;;;;;;2.91;100.00;96549.56;5030197;28;20041;-76
2021/11/20 07:47:11;;;;;;;10.50;5.22;;;;;;;2.92;100.00;96541.56;5021271;28;20053;-76
2021/11/20 07:49:39;;;;;;;10.07;5.32;;;;;;;2.95;100.00;96543.78;5016390;28;20041;-76
2021/11/20 07:52:05;;;;;;;10.27;4.93;;;;;;;2.88;100.00;96535.16;5023339;28;20056;-76
2021/11/20 07:54:31;;;;;;;12.52;5.88;;;;;;;2.85;100.00;96535.56;5025967;28;20573;-74
2021/11/20 07:56:56;;;;;;;11.88;5.20;;;;;;;2.76;100.00;96536.72;5027235;28;20045;-76
2021/11/20 07:59:24;;;;;;;11.50;5.97;;;;;;;2.90;100.00;96537.56;5027758;28;20521;-76
2021/11/20 08:01:49;;;;;;;12.10;5.43;;;;;;;2.93;100.00;96537.16;5027096;28;20081;-75
2021/11/20 08:04:15;;;;;;;13.73;5.55;;;;;;;2.90;100.00;96527.97;5027074;28;20072;-74
2021/11/20 08:06:41;;;;;;;11.68;5.30;;;;;;;2.80;100.00;96532.72;5026647;28;20073;-77
2021/11/20 08:09:08;;;;;;;13.25;5.97;;;;;;;2.75;100.00;96522.91;5043029;28;20042;-75
2021/11/20 08:11:36;;;;;;;13.50;6.28;;;;;;;2.79;100.00;96520.75;5026823;28;20573;-75
2021/11/20 08:14:02;;;;;;;11.55;5.63;;;;;;;3.13;100.00;96524.22;5022221;28;20503;-75
2021/11/20 08:16:29;;;;;;;10.75;5.25;;;;;;;2.98;100.00;96513.19;5025672;28;20047;-75
2021/11/20 08:18:55;;;;;;;13.75;6.20;;;;;;;2.73;100.00;96516.31;5024645;28;20040;-76
2021/11/20 08:21:21;;;;;;;11.13;5.70;;;;;;;3.00;100.00;96516.41;5027586;28;20038;-75
2021/11/20 08:23:50;;;;;;;11.45;5.95;;;;;;;3.05;100.00;96514.03;5022237;28;20038;-76
2021/11/20 08:26:16;;;;;;;13.80;6.63;;;;;;;2.88;100.00;96513.56;5026187;28;20046;-75
2021/11/20 08:28:42;;;;;;;15.35;7.35;;;;;;;2.89;100.00;96510.78;5017882;28;20049;-77
2021/11/20 08:31:09;;;;;;;15.18;7.30;;;;;;;2.89;100.00;96510.78;5022836;28;20041;-76
2021/11/20 08:33:36;;;;;;;18.38;7.55;;;;;;;2.93;100.00;96509.38;5023216;28;20081;-75
2021/11/20 08:36:06;;;;;;;18.02;7.10;;;;;;;3.01;100.00;96502.41;5027650;28;20498;-75
2021/11/20 08:38:33;;;;;;;14.27;6.28;;;;;;;3.23;100.00;96500.44;5027651;28;20092;-76
2021/11/20 08:40:59;;;;;;;17.92;7.40;;;;;;;3.15;100.00;96488.44;5029198;28;20046;-76
2021/11/20 08:43:28;;;;;;;14.77;6.60;;;;;;;3.07;100.00;96488.59;5026165;28;20049;-76
2021/11/20 08:45:56;;;;;;;16.50;6.80;;;;;;;3.33;100.00;96484.44;5044494;28;20487;-75
2021/11/20 08:48:21;;;;;;;12.70;6.93;;;;;;;3.42;100.00;96484.06;5027363;28;20046;-75
2021/11/20 08:50:53;;;;;;;13.15;6.40;;;;;;;3.32;100.00;96483.66;5025467;28;20410;-76
2021/11/20 08:53:20;;;;;;;13.50;6.28;;;;;;;3.66;100.00;96479.22;5022132;28;20053;-75
2021/11/20 08:55:46;;;;;;;13.13;6.35;;;;;;;3.80;100.00;96480.03;5020713;28;20590;-74
2021/11/20 08:58:12;;;;;;;12.50;6.15;;;;;;;3.76;100.00;96490.03;5045921;28;20042;-76
2021/11/20 09:00:55;;;;;;;11.27;5.53;;;;;;;3.97;100.00;96470.78;5045824;28;20038;-76
2021/11/20 09:03:35;;;;;;;10.80;5.60;;;;;;;4.23;100.00;96469.13;5029826;28;20057;-75
2021/11/20 09:06:31;;;;;;;9.02;4.70;;;;;;;4.34;100.00;96471.09;5028492;28;20073;-77
2021/11/20 09:09:21;;;;;;;9.82;4.75;;;;;;;4.49;100.00;96470.03;5032566;28;20042;-76
2021/11/20 09:11:58;;;;;;;10.13;4.95;;;;;;;4.27;100.00;96467.72;5021708;28;20054;-76
2021/11/20 09:14:38;;;;;;;10.95;5.50;;;;;;;4.45;100.00;96466.25;5031155;28;20038;-77
2021/11/20 09:17:05;;;;;;;11.85;5.82;;;;;;;4.41;100.00;96459.84;5019019;28;20053;-78
2021/11/20 09:19:35;;;;;;;10.60;5.53;;;;;;;4.39;100.00;96457.44;5028640;28;20045;-77
2021/11/20 09:22:02;;;;;;;12.95;6.25;;;;;;;4.24;100.00;96460.31;5028173;28;20046;-77
2021/11/20 09:24:31;;;;;;;13.90;6.45;;;;;;;4.13;100.00;96453.13;5028478;28;20439;-76
2021/11/20 09:26:57;;;;;;;12.23;6.47;;;;;;;4.14;100.00;96450.31;5026054;28;20033;-76
2021/11/20 09:29:27;;;;;;;13.90;6.28;;;;;;;4.22;100.00;96446.66;5036208;28;20053;-76
2021/11/20 09:31:54;;;;;;;12.18;5.57;;;;;;;4.62;100.00;96441.28;5024746;28;20045;-76
2021/11/20 09:34:20;;;;;;;13.70;6.18;;;;;;;4.80;100.00;96442.44;5032147;28;20103;-75
2021/11/20 09:36:49;;;;;;;11.52;5.80;;;;;;;4.93;100.00;96447.56;5027260;28;20076;-76
2021/11/20 09:39:18;;;;;;;11.13;5.63;;;;;;;5.04;100.00;96443.47;5016413;28;20038;-77
2021/11/20 09:41:56;;;;;;;10.55;5.30;;;;;;;4.66;100.00;96437.28;5034503;28;20037;-76
2021/11/20 09:44:22;;;;;;;11.07;5.53;;;;;;;4.77;100.00;96435.81;5036124;28;20037;-76
2021/11/20 09:46:52;;;;;;;11.35;5.50;;;;;;;4.50;100.00;96437.75;5050090;28;20045;-76
2021/11/20 09:49:27;;;;;;;13.60;6.13;;;;;;;4.43;100.00;96431.78;5035278;28;20038;-76
2021/11/20 09:51:56;;;;;;;11.27;5.65;;;;;;;4.36;100.00;96431.81;5029001;28;20061;-75
2021/11/20 09:54:28;;;;;;;13.10;6.18;;;;;;;4.48;100.00;96430.16;5028456;28;20041;-75
2021/11/20 09:57:15;;;;;;;12.13;6.03;;;;;;;4.47;100.00;96427.75;5029027;28;20040;-76
2021/11/20 09:59:43;;;;;;;11.30;5.40;;;;;;;4.64;100.00;96426.25;5027094;28;20045;-74
2021/11/20 10:02:16;;;;;;;11.65;5.25;;;;;;;4.60;100.00;96427.69;5025906;28;20100;-75
2021/11/20 10:05:05;;;;;;;10.45;4.80;;;;;;;4.87;100.00;96427.53;5025646;28;20037;-75
2021/11/20 10:07:36;;;;;;;8.70;4.70;;;;;;;5.12;100.00;96421.56;5029082;28;20052;-77
2021/11/20 10:10:14;;;;;;;9.45;4.93;;;;;;;4.86;100.00;96425.94;5026074;28;20049;-75
2021/11/20 10:12:44;;;;;;;8.43;4.70;;;;;;;4.74;100.00;96430.22;5018077;28;20045;-76
2021/11/20 10:15:16;;;;;;;9.95;4.97;;;;;;;4.81;100.00;96430.97;5019541;28;20624;-76
2021/11/20 10:17:50;;;;;;;9.00;4.72;;;;;;;4.91;100.00;96422.69;5023020;28;20038;-75
2021/11/20 10:20:31;;;;;;;8.95;4.40;;;;;;;5.18;100.00;96423.31;5020655;28;20052;-76
2021/11/20 10:23:26;;;;;;;8.65;4.57;;;;;;;5.07;100.00;96413.56;5029433;28;20045;-75
2021/11/20 10:26:13;;;;;;;8.38;4.43;;;;;;;5.06;100.00;96411.94;5029231;28;20154;-75
2021/11/20 10:29:06;;;;;;;9.20;4.15;;;;;;;5.08;100.00;96402.13;5032076;28;20060;-77
2021/11/20 10:31:37;;;;;;;6.80;3.25;;;;;;;5.33;100.00;96400.31;5026121;28;20491;-76
2021/11/20 10:34:26;;;;;;;6.32;2.78;;;;;;;5.62;99.72;96392.03;5031377;28;20038;-74
2021/11/20 10:37:07;;;;;;;5.10;2.92;;;;;;;5.60;98.87;96384.38;5029796;28;20068;-75
2021/11/20 10:39:35;;;;;;;6.22;3.03;;;;;;;5.77;99.36;96387.25;5033231;28;20041;-76
2021/11/20 10:42:39;;;;;;;5.78;3.08;;;;;;;5.98;95.88;96378.22;5027910;28;20700;-76
2021/11/20 10:45:20;;;;;;;5.07;3.10;;;;;;;5.98;94.73;96375.59;5023607;28;20045;-75
2021/11/20 10:47:58;;;;;;;9.38;3.22;;;;;;;5.86;95.23;96377.31;5028983;28;20068;-75
2021/11/20 10:50:46;;;;;;;6.38;3.20;;;;;;;5.28;99.67;96371.44;5027464;28;20767;-76
2021/11/20 10:53:30;;;;;;;7.07;3.38;;;;;;;5.49;98.34;96356.41;5021641;28;20128;-76
2021/11/20 10:56:02;;;;;;;8.07;3.67;;;;;;;5.85;94.80;96354.84;5022298;28;20081;-76
2021/11/20 10:58:49;;;;;;;6.53;3.40;;;;;;;5.86;95.32;96348.56;5023238;28;20053;-76
2021/11/20 11:01:44;;;;;;;6.05;3.25;;;;;;;5.69;97.61;96346.56;5026122;28;20045;-76
2021/11/20 11:04:36;;;;;;;6.00;3.37;;;;;;;5.86;95.17;96343.34;5018032;28;20131;-75
2021/11/20 11:07:39;;;;;;;7.40;3.15;;;;;;;6.01;94.17;96338.59;5025994;28;20454;-76
2021/11/20 11:10:12;;;;;;;5.88;3.30;;;;;;;5.96;92.58;96335.81;5020190;28;20073;-75
2021/11/20 11:12:45;;;;;;;6.25;3.30;;;;;;;5.96;92.55;96325.38;5038885;28;20053;-76
2021/11/20 11:15:23;;;;;;;7.30;2.90;;;;;;;5.72;94.66;96327.84;5021774;28;20092;-77
2021/11/20 11:18:26;;;;;;;7.53;3.22;;;;;;;5.70;95.32;96329.88;5012084;28;20046;-76
2021/11/20 11:21:43;;;;;;;6.05;3.13;;;;;;;5.91;94.16;96322.59;5013455;28;20045;-78
2021/11/20 11:24:31;;;;;;;6.28;3.25;;;;;;;5.81;93.43;96319.72;5034812;28;20120;-77
2021/11/20 11:27:02;;;;;;;7.18;3.42;;;;;;;5.60;95.86;96326.94;5030230;28;20044;-77
2021/11/20 11:29:46;;;;;;;5.97;3.13;;;;;;;5.71;95.89;96328.06;5028007;28;20530;-76
2021/11/20 11:32:12;;;;;;;5.47;2.92;;;;;;;5.58;95.88;96318.53;5018875;28;20042;-77
2021/11/20 11:35:19;;;;;;;7.45;4.03;;;;;;;5.44;94.29;96301.41;5015150;28;20051;-77
2021/11/20 11:38:00;;;;;;;7.00;3.95;;;;;;;5.91;93.67;96299.09;5014458;28;20533;-77
2021/11/20 11:40:44;;;;;;;7.47;3.72;;;;;;;5.80;93.81;96284.16;5028674;28;20046;-77
2021/11/20 11:43:17;;;;;;;5.97;3.35;;;;;;;5.66;95.59;96281.69;5028209;28;20076;-77
2021/11/20 11:45:46;;;;;;;7.13;4.15;;;;;;;5.59;95.73;96267.94;5026997;28;20092;-76